sensor_id;sensor_type;location;lat;lon;timestamp;P1;durP1;ratioP1;P2;durP2;ratioP2
80104;SDS011;69865;47.648;19.030;2023-05-31T00:00:19;9.57;;;9.57;;
80104;SDS011;69865;47.648;19.030;2023-05-31T00:00:51;9.93;;;9.93;;
80104;SDS011;69865;47.648;19.030;2023-05-31T00:01:23;9.70;;;9.70;;
80104;SDS011;69865;47.648;19.030;2023-05-31T00:01:55;9.63;;;9.63;;
80104;SDS011;69865;47.648;19.030;2023-05-31T00:02:28;9.57;;;9.57;;
80104;SDS011;69865;47.648;19.030;2023-05-31T00:03:00;9.67;;;9.67;;
80104;SDS011;69865;47.648;19.030;2023-05-31T00:03:33;9.37;;;9.37;;
80104;SDS011;69865;47.648;19.030;2023-05-31T00:04:05;9.03;;;9.03;;
80104;SDS011;69865;47.648;19.030;2023-05-31T00:04:38;8.80;;;8.80;;
80104;SDS011;69865;47.648;19.030;2023-05-31T00:05:10;9.50;;;9.50;;
80104;SDS011;69865;47.648;19.030;2023-05-31T00:05:42;9.20;;;9.20;;
80104;SDS011;69865;47.648;19.030;2023-05-31T00:06:14;9.13;;;9.13;;
80104;SDS011;69865;47.648;19.030;2023-05-31T00:06:46;8.93;;;8.93;;
80104;SDS011;69865;47.648;19.030;2023-05-31T00:07:18;8.97;;;8.97;;
80104;SDS011;69865;47.648;19.030;2023-05-31T00:07:50;8.57;;;8.57;;
80104;SDS011;69865;47.648;19.030;2023-05-31T00:08:22;8.77;;;8.77;;
80104;SDS011;69865;47.648;19.030;2023-05-31T00:08:54;9.20;;;9.20;;
80104;SDS011;69865;47.648;19.030;2023-05-31T00:09:26;9.47;;;9.47;;
80104;SDS011;69865;47.648;19.030;2023-05-31T00:09:59;9.23;;;9.23;;
80104;SDS011;69865;47.648;19.030;2023-05-31T00:10:31;9.47;;;9.47;;
80104;SDS011;69865;47.648;19.030;2023-05-31T00:11:03;9.27;;;9.27;;
80104;SDS011;69865;47.648;19.030;2023-05-31T00:11:36;9.07;;;9.07;;
80104;SDS011;69865;47.648;19.030;2023-05-31T00:12:08;8.67;;;8.67;;
80104;SDS011;69865;47.648;19.030;2023-05-31T00:12:40;9.20;;;9.20;;
80104;SDS011;69865;47.648;19.030;2023-05-31T00:13:12;9.33;;;9.33;;
80104;SDS011;69865;47.648;19.030;2023-05-31T00:13:44;8.50;;;8.50;;
80104;SDS011;69865;47.648;19.030;2023-05-31T00:14:16;10.07;;;10.07;;
80104;SDS011;69865;47.648;19.030;2023-05-31T00:14:48;9.47;;;9.47;;
80104;SDS011;69865;47.648;19.030;2023-05-31T00:15:20;9.23;;;9.23;;
80104;SDS011;69865;47.648;19.030;2023-05-31T00:15:53;9.27;;;9.27;;
80104;SDS011;69865;47.648;19.030;2023-05-31T00:16:25;9.03;;;9.03;;
80104;SDS011;69865;47.648;19.030;2023-05-31T00:17:17;9.37;;;9.37;;
80104;SDS011;69865;47.648;19.030;2023-05-31T00:17:52;8.80;;;8.80;;
80104;SDS011;69865;47.648;19.030;2023-05-31T00:18:24;8.87;;;8.87;;
80104;SDS011;69865;47.648;19.030;2023-05-31T00:18:57;9.07;;;9.07;;
80104;SDS011;69865;47.648;19.030;2023-05-31T00:19:30;9.20;;;9.20;;
80104;SDS011;69865;47.648;19.030;2023-05-31T00:20:02;9.27;;;9.27;;
80104;SDS011;69865;47.648;19.030;2023-05-31T00:20:35;9.87;;;9.87;;
80104;SDS011;69865;47.648;19.030;2023-05-31T00:21:07;9.40;;;9.40;;
80104;SDS011;69865;47.648;19.030;2023-05-31T00:21:39;9.00;;;9.00;;
80104;SDS011;69865;47.648;19.030;2023-05-31T00:22:11;9.67;;;9.67;;
80104;SDS011;69865;47.648;19.030;2023-05-31T00:22:43;9.17;;;9.17;;
80104;SDS011;69865;47.648;19.030;2023-05-31T00:23:15;9.77;;;9.77;;
80104;SDS011;69865;47.648;19.030;2023-05-31T00:23:47;9.40;;;9.40;;
80104;SDS011;69865;47.648;19.030;2023-05-31T00:24:19;9.20;;;9.20;;
80104;SDS011;69865;47.648;19.030;2023-05-31T00:24:51;9.00;;;9.00;;
80104;SDS011;69865;47.648;19.030;2023-05-31T00:25:23;8.80;;;8.80;;
80104;SDS011;69865;47.648;19.030;2023-05-31T00:25:55;8.87;;;8.87;;
80104;SDS011;69865;47.648;19.030;2023-05-31T00:26:27;8.93;;;8.93;;
80104;SDS011;69865;47.648;19.030;2023-05-31T00:26:59;8.67;;;8.67;;
80104;SDS011;69865;47.648;19.030;2023-05-31T00:27:32;8.00;;;8.00;;
80104;SDS011;69865;47.648;19.030;2023-05-31T00:28:04;8.13;;;8.13;;
80104;SDS011;69865;47.648;19.030;2023-05-31T00:28:36;8.30;;;8.30;;
80104;SDS011;69865;47.648;19.030;2023-05-31T00:29:08;7.87;;;7.87;;
80104;SDS011;69865;47.648;19.030;2023-05-31T00:29:40;8.10;;;8.10;;
80104;SDS011;69865;47.648;19.030;2023-05-31T00:30:12;8.20;;;8.20;;
80104;SDS011;69865;47.648;19.030;2023-05-31T00:30:45;8.73;;;8.73;;
80104;SDS011;69865;47.648;19.030;2023-05-31T00:31:17;8.23;;;8.23;;
80104;SDS011;69865;47.648;19.030;2023-05-31T00:31:49;8.17;;;8.17;;
80104;SDS011;69865;47.648;19.030;2023-05-31T00:32:21;7.97;;;7.97;;
80104;SDS011;69865;47.648;19.030;2023-05-31T00:32:53;8.63;;;8.63;;
80104;SDS011;69865;47.648;19.030;2023-05-31T00:33:25;8.27;;;8.27;;
80104;SDS011;69865;47.648;19.030;2023-05-31T00:33:59;8.73;;;8.73;;
80104;SDS011;69865;47.648;19.030;2023-05-31T00:34:31;8.33;;;8.33;;
80104;SDS011;69865;47.648;19.030;2023-05-31T00:35:03;7.77;;;7.77;;
80104;SDS011;69865;47.648;19.030;2023-05-31T00:35:35;8.43;;;8.43;;
80104;SDS011;69865;47.648;19.030;2023-05-31T00:36:08;9.17;;;9.17;;
80104;SDS011;69865;47.648;19.030;2023-05-31T00:36:40;8.37;;;8.37;;
80104;SDS011;69865;47.648;19.030;2023-05-31T00:37:12;8.30;;;8.30;;
80104;SDS011;69865;47.648;19.030;2023-05-31T00:37:44;7.80;;;7.80;;
80104;SDS011;69865;47.648;19.030;2023-05-31T00:38:16;8.63;;;8.63;;
80104;SDS011;69865;47.648;19.030;2023-05-31T00:38:48;7.90;;;7.90;;
80104;SDS011;69865;47.648;19.030;2023-05-31T00:39:20;8.10;;;8.10;;
80104;SDS011;69865;47.648;19.030;2023-05-31T00:39:52;8.47;;;8.47;;
80104;SDS011;69865;47.648;19.030;2023-05-31T00:40:24;8.13;;;8.13;;
80104;SDS011;69865;47.648;19.030;2023-05-31T00:40:56;8.53;;;8.53;;
80104;SDS011;69865;47.648;19.030;2023-05-31T00:41:28;9.00;;;9.00;;
80104;SDS011;69865;47.648;19.030;2023-05-31T00:42:00;8.87;;;8.87;;
80104;SDS011;69865;47.648;19.030;2023-05-31T00:42:33;8.47;;;8.47;;
80104;SDS011;69865;47.648;19.030;2023-05-31T00:43:05;7.93;;;7.93;;
80104;SDS011;69865;47.648;19.030;2023-05-31T00:43:37;7.60;;;7.60;;
80104;SDS011;69865;47.648;19.030;2023-05-31T00:44:09;7.83;;;7.83;;
80104;SDS011;69865;47.648;19.030;2023-05-31T00:44:41;8.43;;;8.43;;
80104;SDS011;69865;47.648;19.030;2023-05-31T00:45:13;8.53;;;8.53;;
80104;SDS011;69865;47.648;19.030;2023-05-31T00:45:45;8.93;;;8.93;;
80104;SDS011;69865;47.648;19.030;2023-05-31T00:46:19;9.13;;;9.13;;
80104;SDS011;69865;47.648;19.030;2023-05-31T00:46:57;8.83;;;8.83;;
80104;SDS011;69865;47.648;19.030;2023-05-31T00:47:29;8.60;;;8.60;;
80104;SDS011;69865;47.648;19.030;2023-05-31T00:48:02;8.27;;;8.27;;
80104;SDS011;69865;47.648;19.030;2023-05-31T00:48:34;8.37;;;8.37;;
80104;SDS011;69865;47.648;19.030;2023-05-31T00:49:08;8.10;;;8.10;;
80104;SDS011;69865;47.648;19.030;2023-05-31T00:49:40;8.60;;;8.60;;
80104;SDS011;69865;47.648;19.030;2023-05-31T00:50:13;8.30;;;8.30;;
80104;SDS011;69865;47.648;19.030;2023-05-31T00:50:46;9.00;;;9.00;;
80104;SDS011;69865;47.648;19.030;2023-05-31T00:51:20;8.70;;;8.70;;
80104;SDS011;69865;47.648;19.030;2023-05-31T00:51:54;8.53;;;8.53;;
80104;SDS011;69865;47.648;19.030;2023-05-31T00:52:27;7.93;;;7.93;;
80104;SDS011;69865;47.648;19.030;2023-05-31T00:53:01;8.43;;;8.43;;
80104;SDS011;69865;47.648;19.030;2023-05-31T00:53:35;8.27;;;8.27;;
80104;SDS011;69865;47.648;19.030;2023-05-31T00:54:07;8.00;;;8.00;;
80104;SDS011;69865;47.648;19.030;2023-05-31T00:54:39;8.47;;;8.47;;
80104;SDS011;69865;47.648;19.030;2023-05-31T00:55:12;8.57;;;8.57;;
80104;SDS011;69865;47.648;19.030;2023-05-31T00:55:44;8.63;;;8.63;;
80104;SDS011;69865;47.648;19.030;2023-05-31T00:56:17;8.47;;;8.47;;
80104;SDS011;69865;47.648;19.030;2023-05-31T00:56:50;8.37;;;8.37;;
80104;SDS011;69865;47.648;19.030;2023-05-31T00:57:23;8.27;;;8.27;;
80104;SDS011;69865;47.648;19.030;2023-05-31T00:57:55;8.00;;;8.00;;
80104;SDS011;69865;47.648;19.030;2023-05-31T00:58:29;8.07;;;8.07;;
80104;SDS011;69865;47.648;19.030;2023-05-31T00:59:03;8.50;;;8.50;;
80104;SDS011;69865;47.648;19.030;2023-05-31T00:59:36;8.47;;;8.47;;
80104;SDS011;69865;47.648;19.030;2023-05-31T01:00:08;8.23;;;8.23;;
80104;SDS011;69865;47.648;19.030;2023-05-31T01:00:41;8.00;;;8.00;;
80104;SDS011;69865;47.648;19.030;2023-05-31T01:01:14;7.77;;;7.77;;
80104;SDS011;69865;47.648;19.030;2023-05-31T01:01:46;8.40;;;8.40;;
80104;SDS011;69865;47.648;19.030;2023-05-31T01:02:19;8.67;;;8.67;;
80104;SDS011;69865;47.648;19.030;2023-05-31T01:02:51;8.93;;;8.93;;
80104;SDS011;69865;47.648;19.030;2023-05-31T01:03:23;8.67;;;8.67;;
80104;SDS011;69865;47.648;19.030;2023-05-31T01:03:55;8.07;;;8.07;;
80104;SDS011;69865;47.648;19.030;2023-05-31T01:04:29;8.27;;;8.27;;
80104;SDS011;69865;47.648;19.030;2023-05-31T01:05:02;8.63;;;8.63;;
80104;SDS011;69865;47.648;19.030;2023-05-31T01:05:35;8.53;;;8.53;;
80104;SDS011;69865;47.648;19.030;2023-05-31T01:06:07;8.17;;;8.17;;
80104;SDS011;69865;47.648;19.030;2023-05-31T01:06:40;7.93;;;7.93;;
80104;SDS011;69865;47.648;19.030;2023-05-31T01:07:12;8.67;;;8.67;;
80104;SDS011;69865;47.648;19.030;2023-05-31T01:07:44;8.10;;;8.10;;
80104;SDS011;69865;47.648;19.030;2023-05-31T01:08:16;7.93;;;7.93;;
80104;SDS011;69865;47.648;19.030;2023-05-31T01:08:48;8.73;;;8.73;;
80104;SDS011;69865;47.648;19.030;2023-05-31T01:09:21;8.77;;;8.73;;
80104;SDS011;69865;47.648;19.030;2023-05-31T01:09:55;7.83;;;7.83;;
80104;SDS011;69865;47.648;19.030;2023-05-31T01:10:27;7.87;;;7.87;;
80104;SDS011;69865;47.648;19.030;2023-05-31T01:11:02;8.63;;;8.63;;
80104;SDS011;69865;47.648;19.030;2023-05-31T01:11:47;8.30;;;8.30;;
80104;SDS011;69865;47.648;19.030;2023-05-31T01:12:31;7.83;;;7.83;;
80104;SDS011;69865;47.648;19.030;2023-05-31T01:13:12;8.23;;;8.23;;
80104;SDS011;69865;47.648;19.030;2023-05-31T01:14:01;7.93;;;7.93;;
80104;SDS011;69865;47.648;19.030;2023-05-31T01:14:49;7.80;;;7.80;;
80104;SDS011;69865;47.648;19.030;2023-05-31T01:15:31;8.90;;;8.90;;
80104;SDS011;69865;47.648;19.030;2023-05-31T01:16:10;8.17;;;8.17;;
80104;SDS011;69865;47.648;19.030;2023-05-31T01:16:47;8.07;;;8.07;;
80104;SDS011;69865;47.648;19.030;2023-05-31T01:17:26;7.93;;;7.93;;
80104;SDS011;69865;47.648;19.030;2023-05-31T01:18:05;9.10;;;9.10;;
80104;SDS011;69865;47.648;19.030;2023-05-31T01:18:44;8.43;;;8.43;;
80104;SDS011;69865;47.648;19.030;2023-05-31T01:19:24;8.60;;;8.60;;
80104;SDS011;69865;47.648;19.030;2023-05-31T01:20:08;8.50;;;8.50;;
80104;SDS011;69865;47.648;19.030;2023-05-31T01:20:42;8.20;;;8.20;;
80104;SDS011;69865;47.648;19.030;2023-05-31T01:21:16;8.00;;;8.00;;
80104;SDS011;69865;47.648;19.030;2023-05-31T01:21:51;7.70;;;7.70;;
80104;SDS011;69865;47.648;19.030;2023-05-31T01:22:35;7.87;;;7.87;;
80104;SDS011;69865;47.648;19.030;2023-05-31T01:23:21;8.00;;;8.00;;
80104;SDS011;69865;47.648;19.030;2023-05-31T01:24:09;7.80;;;7.80;;
80104;SDS011;69865;47.648;19.030;2023-05-31T01:24:59;7.90;;;7.90;;
80104;SDS011;69865;47.648;19.030;2023-05-31T01:25:58;7.67;;;7.67;;
80104;SDS011;69865;47.648;19.030;2023-05-31T01:26:44;8.37;;;8.37;;
80104;SDS011;69865;47.648;19.030;2023-05-31T01:27:21;8.63;;;8.63;;
80104;SDS011;69865;47.648;19.030;2023-05-31T01:27:54;8.10;;;8.10;;
80104;SDS011;69865;47.648;19.030;2023-05-31T01:28:30;7.67;;;7.67;;
80104;SDS011;69865;47.648;19.030;2023-05-31T01:29:07;7.63;;;7.63;;
80104;SDS011;69865;47.648;19.030;2023-05-31T01:29:43;8.00;;;8.00;;
80104;SDS011;69865;47.648;19.030;2023-05-31T01:30:16;8.03;;;8.03;;
80104;SDS011;69865;47.648;19.030;2023-05-31T01:30:48;8.07;;;8.07;;
80104;SDS011;69865;47.648;19.030;2023-05-31T01:31:22;7.80;;;7.80;;
80104;SDS011;69865;47.648;19.030;2023-05-31T01:31:55;7.90;;;7.90;;
80104;SDS011;69865;47.648;19.030;2023-05-31T01:32:29;7.90;;;7.90;;
80104;SDS011;69865;47.648;19.030;2023-05-31T01:33:02;8.33;;;8.33;;
80104;SDS011;69865;47.648;19.030;2023-05-31T01:33:40;8.90;;;8.90;;
80104;SDS011;69865;47.648;19.030;2023-05-31T01:34:14;7.90;;;7.90;;
80104;SDS011;69865;47.648;19.030;2023-05-31T01:34:46;7.90;;;7.90;;
80104;SDS011;69865;47.648;19.030;2023-05-31T01:35:19;7.77;;;7.77;;
80104;SDS011;69865;47.648;19.030;2023-05-31T01:35:51;7.73;;;7.73;;
80104;SDS011;69865;47.648;19.030;2023-05-31T01:36:23;8.40;;;8.40;;
80104;SDS011;69865;47.648;19.030;2023-05-31T01:36:55;8.33;;;8.33;;
80104;SDS011;69865;47.648;19.030;2023-05-31T01:37:27;8.77;;;8.77;;
80104;SDS011;69865;47.648;19.030;2023-05-31T01:37:59;8.40;;;8.40;;
80104;SDS011;69865;47.648;19.030;2023-05-31T01:38:31;7.93;;;7.93;;
80104;SDS011;69865;47.648;19.030;2023-05-31T01:39:03;7.73;;;7.73;;
80104;SDS011;69865;47.648;19.030;2023-05-31T01:39:37;7.60;;;7.60;;
80104;SDS011;69865;47.648;19.030;2023-05-31T01:40:09;7.90;;;7.90;;
80104;SDS011;69865;47.648;19.030;2023-05-31T01:40:44;7.97;;;7.97;;
80104;SDS011;69865;47.648;19.030;2023-05-31T01:41:17;8.03;;;8.03;;
80104;SDS011;69865;47.648;19.030;2023-05-31T01:41:53;7.37;;;7.37;;
80104;SDS011;69865;47.648;19.030;2023-05-31T01:42:27;7.73;;;7.73;;
80104;SDS011;69865;47.648;19.030;2023-05-31T01:43:00;7.43;;;7.43;;
80104;SDS011;69865;47.648;19.030;2023-05-31T01:43:35;7.97;;;7.97;;
80104;SDS011;69865;47.648;19.030;2023-05-31T01:44:13;8.63;;;8.63;;
80104;SDS011;69865;47.648;19.030;2023-05-31T01:44:47;8.53;;;8.53;;
80104;SDS011;69865;47.648;19.030;2023-05-31T01:45:21;8.17;;;8.17;;
80104;SDS011;69865;47.648;19.030;2023-05-31T01:45:55;8.20;;;8.20;;
80104;SDS011;69865;47.648;19.030;2023-05-31T01:46:29;8.03;;;8.03;;
80104;SDS011;69865;47.648;19.030;2023-05-31T01:47:01;7.77;;;7.77;;
80104;SDS011;69865;47.648;19.030;2023-05-31T01:47:34;7.93;;;7.93;;
80104;SDS011;69865;47.648;19.030;2023-05-31T01:48:07;8.27;;;8.27;;
80104;SDS011;69865;47.648;19.030;2023-05-31T01:48:41;8.27;;;8.27;;
80104;SDS011;69865;47.648;19.030;2023-05-31T01:49:14;7.83;;;7.83;;
80104;SDS011;69865;47.648;19.030;2023-05-31T01:49:46;8.50;;;8.50;;
80104;SDS011;69865;47.648;19.030;2023-05-31T01:50:19;8.03;;;8.03;;
80104;SDS011;69865;47.648;19.030;2023-05-31T01:50:52;8.10;;;8.10;;
80104;SDS011;69865;47.648;19.030;2023-05-31T01:51:25;7.60;;;7.60;;
80104;SDS011;69865;47.648;19.030;2023-05-31T01:51:59;7.17;;;7.17;;
80104;SDS011;69865;47.648;19.030;2023-05-31T01:52:33;7.43;;;7.43;;
80104;SDS011;69865;47.648;19.030;2023-05-31T01:53:07;7.90;;;7.90;;
80104;SDS011;69865;47.648;19.030;2023-05-31T01:53:39;7.77;;;7.77;;
80104;SDS011;69865;47.648;19.030;2023-05-31T01:54:12;7.63;;;7.63;;
80104;SDS011;69865;47.648;19.030;2023-05-31T01:54:44;7.93;;;7.93;;
80104;SDS011;69865;47.648;19.030;2023-05-31T01:55:16;7.73;;;7.73;;
80104;SDS011;69865;47.648;19.030;2023-05-31T01:55:48;7.43;;;7.43;;
80104;SDS011;69865;47.648;19.030;2023-05-31T01:56:21;7.33;;;7.33;;
80104;SDS011;69865;47.648;19.030;2023-05-31T01:56:57;6.70;;;6.70;;
80104;SDS011;69865;47.648;19.030;2023-05-31T01:57:30;7.37;;;7.37;;
80104;SDS011;69865;47.648;19.030;2023-05-31T01:58:04;8.37;;;8.37;;
80104;SDS011;69865;47.648;19.030;2023-05-31T01:58:37;7.53;;;7.53;;
80104;SDS011;69865;47.648;19.030;2023-05-31T01:59:11;7.27;;;7.27;;
80104;SDS011;69865;47.648;19.030;2023-05-31T01:59:44;7.20;;;7.20;;
80104;SDS011;69865;47.648;19.030;2023-05-31T02:00:18;7.93;;;7.93;;
80104;SDS011;69865;47.648;19.030;2023-05-31T02:00:51;7.40;;;7.40;;
80104;SDS011;69865;47.648;19.030;2023-05-31T02:01:24;7.77;;;7.77;;
80104;SDS011;69865;47.648;19.030;2023-05-31T02:01:56;7.67;;;7.67;;
80104;SDS011;69865;47.648;19.030;2023-05-31T02:02:29;7.90;;;7.90;;
80104;SDS011;69865;47.648;19.030;2023-05-31T02:03:02;8.27;;;8.27;;
80104;SDS011;69865;47.648;19.030;2023-05-31T02:03:36;8.50;;;8.50;;
80104;SDS011;69865;47.648;19.030;2023-05-31T02:04:09;8.40;;;8.40;;
80104;SDS011;69865;47.648;19.030;2023-05-31T02:04:41;8.47;;;8.47;;
80104;SDS011;69865;47.648;19.030;2023-05-31T02:05:13;7.73;;;7.73;;
80104;SDS011;69865;47.648;19.030;2023-05-31T02:05:55;8.20;;;8.20;;
80104;SDS011;69865;47.648;19.030;2023-05-31T02:06:28;8.20;;;8.20;;
80104;SDS011;69865;47.648;19.030;2023-05-31T02:07:00;8.17;;;8.17;;
80104;SDS011;69865;47.648;19.030;2023-05-31T02:07:32;8.10;;;8.10;;
80104;SDS011;69865;47.648;19.030;2023-05-31T02:08:04;7.93;;;7.93;;
80104;SDS011;69865;47.648;19.030;2023-05-31T02:08:36;7.90;;;7.90;;
80104;SDS011;69865;47.648;19.030;2023-05-31T02:09:08;8.00;;;8.00;;
80104;SDS011;69865;47.648;19.030;2023-05-31T02:09:40;8.13;;;8.13;;
80104;SDS011;69865;47.648;19.030;2023-05-31T02:10:12;8.00;;;8.00;;
80104;SDS011;69865;47.648;19.030;2023-05-31T02:10:44;8.43;;;8.43;;
80104;SDS011;69865;47.648;19.030;2023-05-31T02:11:16;8.47;;;8.47;;
80104;SDS011;69865;47.648;19.030;2023-05-31T02:11:49;8.47;;;8.47;;
80104;SDS011;69865;47.648;19.030;2023-05-31T02:12:22;7.80;;;7.80;;
80104;SDS011;69865;47.648;19.030;2023-05-31T02:12:54;7.17;;;7.17;;
80104;SDS011;69865;47.648;19.030;2023-05-31T02:13:27;7.10;;;7.10;;
80104;SDS011;69865;47.648;19.030;2023-05-31T02:13:59;7.73;;;7.73;;
80104;SDS011;69865;47.648;19.030;2023-05-31T02:14:31;8.17;;;8.17;;
80104;SDS011;69865;47.648;19.030;2023-05-31T02:15:04;7.80;;;7.80;;
80104;SDS011;69865;47.648;19.030;2023-05-31T02:15:37;7.60;;;7.60;;
80104;SDS011;69865;47.648;19.030;2023-05-31T02:16:09;8.47;;;8.47;;
80104;SDS011;69865;47.648;19.030;2023-05-31T02:16:41;7.73;;;7.73;;
80104;SDS011;69865;47.648;19.030;2023-05-31T02:17:13;7.53;;;7.53;;
80104;SDS011;69865;47.648;19.030;2023-05-31T02:17:46;7.77;;;7.77;;
80104;SDS011;69865;47.648;19.030;2023-05-31T02:18:18;8.57;;;8.57;;
80104;SDS011;69865;47.648;19.030;2023-05-31T02:18:50;8.57;;;8.57;;
80104;SDS011;69865;47.648;19.030;2023-05-31T02:19:23;7.60;;;7.60;;
80104;SDS011;69865;47.648;19.030;2023-05-31T02:19:55;8.20;;;8.20;;
80104;SDS011;69865;47.648;19.030;2023-05-31T02:20:27;8.37;;;8.37;;
80104;SDS011;69865;47.648;19.030;2023-05-31T02:20:59;8.37;;;8.37;;
80104;SDS011;69865;47.648;19.030;2023-05-31T02:21:32;8.47;;;8.47;;
80104;SDS011;69865;47.648;19.030;2023-05-31T02:22:04;7.90;;;7.90;;
80104;SDS011;69865;47.648;19.030;2023-05-31T02:22:37;7.77;;;7.77;;
80104;SDS011;69865;47.648;19.030;2023-05-31T02:23:09;8.07;;;8.07;;
80104;SDS011;69865;47.648;19.030;2023-05-31T02:23:41;8.03;;;8.03;;
80104;SDS011;69865;47.648;19.030;2023-05-31T02:24:13;8.67;;;8.67;;
80104;SDS011;69865;47.648;19.030;2023-05-31T02:24:45;8.37;;;8.37;;
80104;SDS011;69865;47.648;19.030;2023-05-31T02:25:18;7.73;;;7.73;;
80104;SDS011;69865;47.648;19.030;2023-05-31T02:25:50;8.17;;;8.17;;
80104;SDS011;69865;47.648;19.030;2023-05-31T02:26:22;8.60;;;8.60;;
80104;SDS011;69865;47.648;19.030;2023-05-31T02:26:54;8.57;;;8.57;;
80104;SDS011;69865;47.648;19.030;2023-05-31T02:27:28;8.33;;;8.33;;
80104;SDS011;69865;47.648;19.030;2023-05-31T02:28:00;8.27;;;8.27;;
80104;SDS011;69865;47.648;19.030;2023-05-31T02:28:32;7.67;;;7.67;;
80104;SDS011;69865;47.648;19.030;2023-05-31T02:29:04;8.20;;;8.20;;
80104;SDS011;69865;47.648;19.030;2023-05-31T02:29:36;8.33;;;8.33;;
80104;SDS011;69865;47.648;19.030;2023-05-31T02:30:09;7.63;;;7.63;;
80104;SDS011;69865;47.648;19.030;2023-05-31T02:30:43;8.67;;;8.67;;
80104;SDS011;69865;47.648;19.030;2023-05-31T02:31:25;8.43;;;8.43;;
80104;SDS011;69865;47.648;19.030;2023-05-31T02:31:57;9.13;;;9.13;;
80104;SDS011;69865;47.648;19.030;2023-05-31T02:32:29;8.47;;;8.47;;
80104;SDS011;69865;47.648;19.030;2023-05-31T02:33:01;8.27;;;8.27;;
80104;SDS011;69865;47.648;19.030;2023-05-31T02:33:33;8.13;;;8.13;;
80104;SDS011;69865;47.648;19.030;2023-05-31T02:34:05;8.20;;;8.20;;
80104;SDS011;69865;47.648;19.030;2023-05-31T02:34:37;7.70;;;7.70;;
80104;SDS011;69865;47.648;19.030;2023-05-31T02:35:10;8.13;;;8.13;;
80104;SDS011;69865;47.648;19.030;2023-05-31T02:35:42;8.07;;;8.07;;
80104;SDS011;69865;47.648;19.030;2023-05-31T02:36:15;7.70;;;7.70;;
80104;SDS011;69865;47.648;19.030;2023-05-31T02:36:47;7.43;;;7.43;;
80104;SDS011;69865;47.648;19.030;2023-05-31T02:37:19;8.47;;;8.47;;
80104;SDS011;69865;47.648;19.030;2023-05-31T02:37:51;7.53;;;7.53;;
80104;SDS011;69865;47.648;19.030;2023-05-31T02:38:23;7.37;;;7.37;;
80104;SDS011;69865;47.648;19.030;2023-05-31T02:38:55;6.87;;;6.87;;
80104;SDS011;69865;47.648;19.030;2023-05-31T02:39:27;7.57;;;7.57;;
80104;SDS011;69865;47.648;19.030;2023-05-31T02:40:00;7.97;;;7.97;;
80104;SDS011;69865;47.648;19.030;2023-05-31T02:40:32;7.47;;;7.47;;
80104;SDS011;69865;47.648;19.030;2023-05-31T02:41:04;7.80;;;7.80;;
80104;SDS011;69865;47.648;19.030;2023-05-31T02:41:36;7.80;;;7.80;;
80104;SDS011;69865;47.648;19.030;2023-05-31T02:42:08;7.77;;;7.77;;
80104;SDS011;69865;47.648;19.030;2023-05-31T02:42:42;7.47;;;7.47;;
80104;SDS011;69865;47.648;19.030;2023-05-31T02:43:14;6.90;;;6.90;;
80104;SDS011;69865;47.648;19.030;2023-05-31T02:43:46;7.50;;;7.50;;
80104;SDS011;69865;47.648;19.030;2023-05-31T02:44:18;7.53;;;7.53;;
80104;SDS011;69865;47.648;19.030;2023-05-31T02:44:50;7.50;;;7.50;;
80104;SDS011;69865;47.648;19.030;2023-05-31T02:45:22;7.30;;;7.30;;
80104;SDS011;69865;47.648;19.030;2023-05-31T02:45:54;7.17;;;7.17;;
80104;SDS011;69865;47.648;19.030;2023-05-31T02:46:26;7.23;;;7.23;;
80104;SDS011;69865;47.648;19.030;2023-05-31T02:46:58;8.03;;;8.03;;
80104;SDS011;69865;47.648;19.030;2023-05-31T02:47:31;7.87;;;7.87;;
80104;SDS011;69865;47.648;19.030;2023-05-31T02:48:03;7.20;;;7.20;;
80104;SDS011;69865;47.648;19.030;2023-05-31T02:48:35;7.30;;;7.30;;
80104;SDS011;69865;47.648;19.030;2023-05-31T02:49:07;7.63;;;7.63;;
80104;SDS011;69865;47.648;19.030;2023-05-31T02:49:39;6.77;;;6.77;;
80104;SDS011;69865;47.648;19.030;2023-05-31T02:50:11;6.77;;;6.77;;
80104;SDS011;69865;47.648;19.030;2023-05-31T02:50:43;6.40;;;6.40;;
80104;SDS011;69865;47.648;19.030;2023-05-31T02:51:16;7.17;;;7.17;;
80104;SDS011;69865;47.648;19.030;2023-05-31T02:51:48;6.93;;;6.93;;
80104;SDS011;69865;47.648;19.030;2023-05-31T02:52:20;7.13;;;7.13;;
80104;SDS011;69865;47.648;19.030;2023-05-31T02:52:52;7.10;;;7.10;;
80104;SDS011;69865;47.648;19.030;2023-05-31T02:53:24;7.10;;;7.10;;
80104;SDS011;69865;47.648;19.030;2023-05-31T02:53:56;6.70;;;6.70;;
80104;SDS011;69865;47.648;19.030;2023-05-31T02:54:28;7.03;;;7.03;;
80104;SDS011;69865;47.648;19.030;2023-05-31T02:55:00;7.13;;;7.13;;
80104;SDS011;69865;47.648;19.030;2023-05-31T02:55:32;7.07;;;7.07;;
80104;SDS011;69865;47.648;19.030;2023-05-31T02:56:04;7.03;;;7.03;;
80104;SDS011;69865;47.648;19.030;2023-05-31T02:56:37;7.27;;;7.27;;
80104;SDS011;69865;47.648;19.030;2023-05-31T02:57:09;7.63;;;7.63;;
80104;SDS011;69865;47.648;19.030;2023-05-31T02:57:42;7.73;;;7.73;;
80104;SDS011;69865;47.648;19.030;2023-05-31T02:58:14;7.27;;;7.27;;
80104;SDS011;69865;47.648;19.030;2023-05-31T02:58:46;7.27;;;7.27;;
80104;SDS011;69865;47.648;19.030;2023-05-31T02:59:18;7.07;;;7.07;;
80104;SDS011;69865;47.648;19.030;2023-05-31T02:59:53;6.53;;;6.53;;
80104;SDS011;69865;47.648;19.030;2023-05-31T03:00:27;7.17;;;7.17;;
80104;SDS011;69865;47.648;19.030;2023-05-31T03:00:59;6.83;;;6.83;;
80104;SDS011;69865;47.648;19.030;2023-05-31T03:01:31;6.90;;;6.90;;
80104;SDS011;69865;47.648;19.030;2023-05-31T03:02:03;7.03;;;7.03;;
80104;SDS011;69865;47.648;19.030;2023-05-31T03:02:36;7.27;;;7.27;;
80104;SDS011;69865;47.648;19.030;2023-05-31T03:03:08;6.87;;;6.87;;
80104;SDS011;69865;47.648;19.030;2023-05-31T03:03:41;6.60;;;6.60;;
80104;SDS011;69865;47.648;19.030;2023-05-31T03:04:13;7.13;;;7.13;;
80104;SDS011;69865;47.648;19.030;2023-05-31T03:04:45;7.37;;;7.37;;
80104;SDS011;69865;47.648;19.030;2023-05-31T03:05:17;7.83;;;7.83;;
80104;SDS011;69865;47.648;19.030;2023-05-31T03:05:49;7.37;;;7.37;;
80104;SDS011;69865;47.648;19.030;2023-05-31T03:06:21;7.07;;;7.07;;
80104;SDS011;69865;47.648;19.030;2023-05-31T03:06:53;7.30;;;7.30;;
80104;SDS011;69865;47.648;19.030;2023-05-31T03:07:25;7.17;;;7.17;;
80104;SDS011;69865;47.648;19.030;2023-05-31T03:07:57;7.37;;;7.37;;
80104;SDS011;69865;47.648;19.030;2023-05-31T03:08:29;7.63;;;7.63;;
80104;SDS011;69865;47.648;19.030;2023-05-31T03:09:04;7.37;;;7.37;;
80104;SDS011;69865;47.648;19.030;2023-05-31T03:09:36;7.37;;;7.37;;
80104;SDS011;69865;47.648;19.030;2023-05-31T03:10:08;7.07;;;7.07;;
80104;SDS011;69865;47.648;19.030;2023-05-31T03:10:40;6.97;;;6.97;;
80104;SDS011;69865;47.648;19.030;2023-05-31T03:11:12;7.40;;;7.40;;
80104;SDS011;69865;47.648;19.030;2023-05-31T03:11:44;7.27;;;7.27;;
80104;SDS011;69865;47.648;19.030;2023-05-31T03:12:16;7.10;;;7.10;;
80104;SDS011;69865;47.648;19.030;2023-05-31T03:12:50;6.97;;;6.97;;
80104;SDS011;69865;47.648;19.030;2023-05-31T03:13:22;7.03;;;7.03;;
80104;SDS011;69865;47.648;19.030;2023-05-31T03:13:54;7.10;;;7.10;;
80104;SDS011;69865;47.648;19.030;2023-05-31T03:14:26;6.77;;;6.77;;
80104;SDS011;69865;47.648;19.030;2023-05-31T03:14:58;6.40;;;6.40;;
80104;SDS011;69865;47.648;19.030;2023-05-31T03:15:30;7.03;;;7.03;;
80104;SDS011;69865;47.648;19.030;2023-05-31T03:16:02;7.93;;;7.93;;
80104;SDS011;69865;47.648;19.030;2023-05-31T03:16:35;6.97;;;6.97;;
80104;SDS011;69865;47.648;19.030;2023-05-31T03:17:07;6.90;;;6.90;;
80104;SDS011;69865;47.648;19.030;2023-05-31T03:17:39;7.10;;;7.10;;